Terminal Aerodrome Forecast
Issued by NWS

Home | Current Version | Previous Version | Text Only | Print | Product List | Glossary On
Versions: 1 2 3 4 5 6 7 8 9 10 11 12 13 14 15 16 17 18 19 20 21 22 23 24 25 26 27 28 29 30 31 32 33 34 35 36 37 38 39
000
FTUS41 KRNK 292333
TAFLWB
TAF
KLWB 292333Z 3000/3024 00000KT P6SM SCT060 BKN200
     FM300900 00000KT 1/4SM FG OVC001
     FM301400 24003KT P6SM SCT045 BKN110
     FM301800 22004KT P6SM BKN050=

USA.gov is the U.S. government's official web portal to all federal, state and local government web resources and services.